sensor_id;sensor_type;location;lat;lon;timestamp;pressure;altitude;pressure_sealevel;temperature;humidity
1832;BME280;1680;48.106;11.708;2023-05-12T00:00:11;95198.19;;;11.10;100.00
1832;BME280;1680;48.106;11.708;2023-05-12T00:02:40;95208.69;;;11.10;100.00
1832;BME280;1680;48.106;11.708;2023-05-12T00:05:09;95209.72;;;11.09;100.00
1832;BME280;1680;48.106;11.708;2023-05-12T00:07:36;95208.69;;;11.10;100.00
1832;BME280;1680;48.106;11.708;2023-05-12T00:10:04;95199.78;;;11.11;100.00
1832;BME280;1680;48.106;11.708;2023-05-12T00:12:31;95204.34;;;11.15;100.00
1832;BME280;1680;48.106;11.708;2023-05-12T00:14:59;95197.28;;;11.16;100.00
1832;BME280;1680;48.106;11.708;2023-05-12T00:17:27;95205.47;;;11.19;100.00
1832;BME280;1680;48.106;11.708;2023-05-12T00:19:55;95205.03;;;11.11;100.00
1832;BME280;1680;48.106;11.708;2023-05-12T00:22:23;95203.25;;;11.00;100.00
1832;BME280;1680;48.106;11.708;2023-05-12T00:24:51;95199.03;;;10.99;100.00
1832;BME280;1680;48.106;11.708;2023-05-12T00:27:18;95195.16;;;11.01;100.00
1832;BME280;1680;48.106;11.708;2023-05-12T00:29:45;95203.72;;;10.97;100.00
1832;BME280;1680;48.106;11.708;2023-05-12T00:32:13;95194.38;;;11.01;100.00
1832;BME280;1680;48.106;11.708;2023-05-12T00:34:40;95199.38;;;11.02;100.00
1832;BME280;1680;48.106;11.708;2023-05-12T00:37:09;95200.25;;;11.08;100.00
1832;BME280;1680;48.106;11.708;2023-05-12T00:39:36;95203.91;;;11.07;100.00
1832;BME280;1680;48.106;11.708;2023-05-12T00:42:04;95193.41;;;11.07;100.00
1832;BME280;1680;48.106;11.708;2023-05-12T00:44:31;95192.94;;;11.10;100.00
1832;BME280;1680;48.106;11.708;2023-05-12T00:46:59;95194.22;;;11.07;100.00
1832;BME280;1680;48.106;11.708;2023-05-12T00:49:26;95197.06;;;11.06;100.00
1832;BME280;1680;48.106;11.708;2023-05-12T00:51:54;95189.13;;;11.01;100.00
1832;BME280;1680;48.106;11.708;2023-05-12T00:54:24;95189.13;;;11.01;100.00
1832;BME280;1680;48.106;11.708;2023-05-12T00:56:51;95186.13;;;10.97;100.00
1832;BME280;1680;48.106;11.708;2023-05-12T00:59:18;95184.53;;;10.96;100.00
1832;BME280;1680;48.106;11.708;2023-05-12T01:01:48;95178.06;;;10.87;100.00
1832;BME280;1680;48.106;11.708;2023-05-12T01:04:15;95188.44;;;10.94;100.00
1832;BME280;1680;48.106;11.708;2023-05-12T01:06:47;95173.47;;;10.94;100.00
1832;BME280;1680;48.106;11.708;2023-05-12T01:09:15;95181.13;;;10.96;100.00
1832;BME280;1680;48.106;11.708;2023-05-12T01:11:44;95182.72;;;10.97;100.00
1832;BME280;1680;48.106;11.708;2023-05-12T01:14:11;95183.19;;;10.94;100.00
1832;BME280;1680;48.106;11.708;2023-05-12T01:16:43;95178.72;;;10.94;100.00
1832;BME280;1680;48.106;11.708;2023-05-12T01:19:19;95181.13;;;10.96;100.00
1832;BME280;1680;48.106;11.708;2023-05-12T01:21:51;95182.63;;;10.92;100.00
1832;BME280;1680;48.106;11.708;2023-05-12T01:24:19;95164.78;;;10.77;100.00
1832;BME280;1680;48.106;11.708;2023-05-12T01:26:50;95181.84;;;10.91;100.00
1832;BME280;1680;48.106;11.708;2023-05-12T01:29:18;95183.66;;;10.91;100.00
1832;BME280;1680;48.106;11.708;2023-05-12T01:31:46;95189.34;;;10.88;100.00
1832;BME280;1680;48.106;11.708;2023-05-12T01:34:15;95182.28;;;10.88;100.00
1832;BME280;1680;48.106;11.708;2023-05-12T01:36:43;95175.69;;;10.86;100.00
1832;BME280;1680;48.106;11.708;2023-05-12T01:39:10;95166.69;;;10.82;100.00
1832;BME280;1680;48.106;11.708;2023-05-12T01:41:38;95177.63;;;10.79;100.00
1832;BME280;1680;48.106;11.708;2023-05-12T01:44:07;95173.31;;;10.73;100.00
1832;BME280;1680;48.106;11.708;2023-05-12T01:46:35;95180.06;;;10.69;100.00
1832;BME280;1680;48.106;11.708;2023-05-12T01:49:02;95193.06;;;10.64;100.00
1832;BME280;1680;48.106;11.708;2023-05-12T01:51:29;95181.44;;;10.60;100.00
1832;BME280;1680;48.106;11.708;2023-05-12T01:53:57;95181.81;;;10.52;100.00
1832;BME280;1680;48.106;11.708;2023-05-12T01:56:37;95186.16;;;10.47;100.00
1832;BME280;1680;48.106;11.708;2023-05-12T01:59:19;95194.59;;;10.37;100.00
1832;BME280;1680;48.106;11.708;2023-05-12T02:01:46;95186.72;;;10.37;100.00
1832;BME280;1680;48.106;11.708;2023-05-12T02:04:14;95181.59;;;10.31;100.00
1832;BME280;1680;48.106;11.708;2023-05-12T02:06:41;95181.72;;;10.24;100.00
1832;BME280;1680;48.106;11.708;2023-05-12T02:09:08;95185.94;;;10.14;100.00
1832;BME280;1680;48.106;11.708;2023-05-12T02:11:36;95179.78;;;10.08;100.00
1832;BME280;1680;48.106;11.708;2023-05-12T02:14:03;95176.59;;;10.06;100.00
1832;BME280;1680;48.106;11.708;2023-05-12T02:16:32;95179.88;;;10.02;100.00
1832;BME280;1680;48.106;11.708;2023-05-12T02:18:59;95183.06;;;10.04;100.00
1832;BME280;1680;48.106;11.708;2023-05-12T02:21:26;95179.66;;;10.03;100.00
1832;BME280;1680;48.106;11.708;2023-05-12T02:23:54;95184.09;;;10.03;100.00
1832;BME280;1680;48.106;11.708;2023-05-12T02:26:21;95175.44;;;10.02;100.00
1832;BME280;1680;48.106;11.708;2023-05-12T02:28:48;95176.59;;;10.06;100.00
1832;BME280;1680;48.106;11.708;2023-05-12T02:31:16;95182.84;;;10.05;100.00
1832;BME280;1680;48.106;11.708;2023-05-12T02:33:44;95177.16;;;10.08;100.00
1832;BME280;1680;48.106;11.708;2023-05-12T02:36:12;95179.28;;;10.11;100.00
1832;BME280;1680;48.106;11.708;2023-05-12T02:38:39;95176.22;;;10.14;100.00
1832;BME280;1680;48.106;11.708;2023-05-12T02:41:06;95177.13;;;10.20;100.00
1832;BME280;1680;48.106;11.708;2023-05-12T02:43:33;95181.72;;;10.24;100.00
1832;BME280;1680;48.106;11.708;2023-05-12T02:46:01;95180.78;;;10.30;100.00
1832;BME280;1680;48.106;11.708;2023-05-12T02:48:28;95189.78;;;10.34;100.00
1832;BME280;1680;48.106;11.708;2023-05-12T02:50:57;95185.56;;;10.33;100.00
1832;BME280;1680;48.106;11.708;2023-05-12T02:53:24;95182.38;;;10.31;100.00
1832;BME280;1680;48.106;11.708;2023-05-12T02:55:52;95184.78;;;10.33;100.00
1832;BME280;1680;48.106;11.708;2023-05-12T02:58:19;95178.84;;;10.37;100.00
1832;BME280;1680;48.106;11.708;2023-05-12T03:00:46;95187.88;;;10.41;100.00
1832;BME280;1680;48.106;11.708;2023-05-12T03:03:13;95186.25;;;10.40;100.00
1832;BME280;1680;48.106;11.708;2023-05-12T03:05:40;95188.41;;;10.43;100.00
1832;BME280;1680;48.106;11.708;2023-05-12T03:08:10;95191.03;;;10.43;100.00
1832;BME280;1680;48.106;11.708;2023-05-12T03:10:37;95191.84;;;10.44;100.00
1832;BME280;1680;48.106;11.708;2023-05-12T03:13:04;95194.34;;;10.50;100.00
1832;BME280;1680;48.106;11.708;2023-05-12T03:15:31;95194.22;;;10.45;100.00
1832;BME280;1680;48.106;11.708;2023-05-12T03:17:58;95198.34;;;10.41;100.00
1832;BME280;1680;48.106;11.708;2023-05-12T03:20:26;95195.16;;;10.39;100.00
1832;BME280;1680;48.106;11.708;2023-05-12T03:22:53;95187.88;;;10.41;100.00
1832;BME280;1680;48.106;11.708;2023-05-12T03:25:22;95191.25;;;10.42;100.00
1832;BME280;1680;48.106;11.708;2023-05-12T03:27:50;95195.72;;;10.41;100.00
1832;BME280;1680;48.106;11.708;2023-05-12T03:30:17;95198.34;;;10.41;100.00
1832;BME280;1680;48.106;11.708;2023-05-12T03:32:45;95172.84;;;10.25;100.00
1832;BME280;1680;48.106;11.708;2023-05-12T03:35:12;95182.63;;;10.30;100.00
1832;BME280;1680;48.106;11.708;2023-05-12T03:37:39;95202.66;;;10.36;100.00
1832;BME280;1680;48.106;11.708;2023-05-12T03:40:07;95200.41;;;10.39;100.00
1832;BME280;1680;48.106;11.708;2023-05-12T03:42:37;95193.31;;;10.40;100.00
1832;BME280;1680;48.106;11.708;2023-05-12T03:45:05;95185.78;;;10.43;100.00
1832;BME280;1680;48.106;11.708;2023-05-12T03:47:32;95186.16;;;10.47;100.00
1832;BME280;1680;48.106;11.708;2023-05-12T03:50:00;95188.06;;;10.51;100.00
1832;BME280;1680;48.106;11.708;2023-05-12T03:52:27;95185.44;;;10.51;100.00
1832;BME280;1680;48.106;11.708;2023-05-12T03:54:54;95142.06;;;10.09;100.00
1832;BME280;1680;48.106;11.708;2023-05-12T03:57:21;95186.16;;;10.47;100.00
1832;BME280;1680;48.106;11.708;2023-05-12T03:59:50;95185.31;;;10.46;100.00
1832;BME280;1680;48.106;11.708;2023-05-12T04:02:17;95189.34;;;10.49;100.00
1832;BME280;1680;48.106;11.708;2023-05-12T04:04:44;95190.13;;;10.49;100.00
1832;BME280;1680;48.106;11.708;2023-05-12T04:07:11;95181.22;;;10.50;100.00
1832;BME280;1680;48.106;11.708;2023-05-12T04:09:39;95182.13;;;10.44;100.00
1832;BME280;1680;48.106;11.708;2023-05-12T04:12:08;95176.56;;;10.41;100.00
1832;BME280;1680;48.106;11.708;2023-05-12T04:14:35;95190.56;;;10.46;100.00
1832;BME280;1680;48.106;11.708;2023-05-12T04:17:04;95190.13;;;10.49;100.00
1832;BME280;1680;48.106;11.708;2023-05-12T04:19:32;95182.38;;;10.54;100.00
1832;BME280;1680;48.106;11.708;2023-05-12T04:21:59;95190.91;;;10.50;100.00
1832;BME280;1680;48.106;11.708;2023-05-12T04:24:26;95198.56;;;10.51;100.00
1832;BME280;1680;48.106;11.708;2023-05-12T04:26:53;95186.94;;;10.47;100.00
1832;BME280;1680;48.106;11.708;2023-05-12T04:29:20;95189.09;;;10.50;100.00
1832;BME280;1680;48.106;11.708;2023-05-12T04:31:47;95195.13;;;10.62;100.00
1832;BME280;1680;48.106;11.708;2023-05-12T04:34:16;95172.22;;;10.46;100.00
1832;BME280;1680;48.106;11.708;2023-05-12T04:36:43;95191.47;;;10.63;100.00
1832;BME280;1680;48.106;11.708;2023-05-12T04:39:10;95200.47;;;10.67;100.00
1832;BME280;1680;48.106;11.708;2023-05-12T04:41:38;95199.09;;;10.76;100.00
1832;BME280;1680;48.106;11.708;2023-05-12T04:44:05;95206.50;;;10.79;100.00
1832;BME280;1680;48.106;11.708;2023-05-12T04:46:32;95204.13;;;10.77;100.00
1832;BME280;1680;48.106;11.708;2023-05-12T04:49:00;95213.78;;;10.77;100.00
1832;BME280;1680;48.106;11.708;2023-05-12T04:51:28;95216.19;;;10.78;100.00
1832;BME280;1680;48.106;11.708;2023-05-12T04:53:56;95206.59;;;10.84;100.00
1832;BME280;1680;48.106;11.708;2023-05-12T04:56:23;95214.81;;;10.87;100.00
1832;BME280;1680;48.106;11.708;2023-05-12T04:58:50;95219.47;;;10.85;100.00
1832;BME280;1680;48.106;11.708;2023-05-12T05:01:17;95220.28;;;10.86;100.00
1832;BME280;1680;48.106;11.708;2023-05-12T05:03:44;95217.66;;;10.86;100.00
1832;BME280;1680;48.106;11.708;2023-05-12T05:06:11;95217.75;;;10.79;100.00
1832;BME280;1680;48.106;11.708;2023-05-12T05:08:40;95228.16;;;10.86;100.00
1832;BME280;1680;48.106;11.708;2023-05-12T05:11:07;95224.59;;;10.80;100.00
1832;BME280;1680;48.106;11.708;2023-05-12T05:13:34;95217.31;;;10.82;100.00
1832;BME280;1680;48.106;11.708;2023-05-12T05:16:02;95213.34;;;10.80;100.00
1832;BME280;1680;48.106;11.708;2023-05-12T05:18:29;95217.31;;;10.82;100.00
1832;BME280;1680;48.106;11.708;2023-05-12T05:20:56;95223.38;;;10.83;100.00
1832;BME280;1680;48.106;11.708;2023-05-12T05:23:23;95221.41;;;10.90;100.00
1832;BME280;1680;48.106;11.708;2023-05-12T05:25:52;95227.34;;;10.97;100.00
1832;BME280;1680;48.106;11.708;2023-05-12T05:28:19;95222.97;;;11.02;100.00
1832;BME280;1680;48.106;11.708;2023-05-12T05:30:46;95229.22;;;11.13;100.00
1832;BME280;1680;48.106;11.708;2023-05-12T05:33:13;95213.47;;;11.13;100.00
1832;BME280;1680;48.106;11.708;2023-05-12T05:35:41;95232.94;;;11.28;100.00
1832;BME280;1680;48.106;11.708;2023-05-12T05:38:08;95227.75;;;11.45;100.00
1832;BME280;1680;48.106;11.708;2023-05-12T05:40:35;95224.31;;;11.56;100.00
1832;BME280;1680;48.106;11.708;2023-05-12T05:43:03;95224.56;;;11.70;100.00
1832;BME280;1680;48.106;11.708;2023-05-12T05:45:31;95232.25;;;11.88;100.00
1832;BME280;1680;48.106;11.708;2023-05-12T05:47:58;95232.72;;;11.85;100.00
1832;BME280;1680;48.106;11.708;2023-05-12T05:50:25;95226.34;;;11.81;100.00
1832;BME280;1680;48.106;11.708;2023-05-12T05:52:52;95224.44;;;11.93;100.00
1832;BME280;1680;48.106;11.708;2023-05-12T05:55:19;95227.72;;;12.00;100.00
1832;BME280;1680;48.106;11.708;2023-05-12T05:57:46;95233.06;;;12.05;100.00
1832;BME280;1680;48.106;11.708;2023-05-12T06:00:16;95230.59;;;12.15;100.00
1832;BME280;1680;48.106;11.708;2023-05-12T06:02:43;95237.44;;;12.16;100.00
1832;BME280;1680;48.106;11.708;2023-05-12T06:05:10;95229.00;;;12.14;100.00
1832;BME280;1680;48.106;11.708;2023-05-12T06:07:37;95238.72;;;12.30;100.00
1832;BME280;1680;48.106;11.708;2023-05-12T06:10:06;95237.91;;;12.30;100.00
1832;BME280;1680;48.106;11.708;2023-05-12T06:12:33;95242.06;;;12.26;100.00
1832;BME280;1680;48.106;11.708;2023-05-12T06:15:00;95188.53;;;12.15;100.00
1832;BME280;1680;48.106;11.708;2023-05-12T06:17:29;95241.72;;;12.55;100.00
1832;BME280;1680;48.106;11.708;2023-05-12T06:19:56;95242.75;;;12.54;100.00
1832;BME280;1680;48.106;11.708;2023-05-12T06:22:23;95240.28;;;12.64;100.00
1832;BME280;1680;48.106;11.708;2023-05-12T06:24:51;95251.59;;;12.81;100.00
1832;BME280;1680;48.106;11.708;2023-05-12T06:27:18;95257.00;;;12.91;100.00
1832;BME280;1680;48.106;11.708;2023-05-12T06:29:45;95251.09;;;13.00;100.00
1832;BME280;1680;48.106;11.708;2023-05-12T06:32:13;95248.88;;;13.14;100.00
1832;BME280;1680;48.106;11.708;2023-05-12T06:34:41;95244.91;;;13.11;100.00
1832;BME280;1680;48.106;11.708;2023-05-12T06:37:08;95246.38;;;13.24;100.00
1832;BME280;1680;48.106;11.708;2023-05-12T06:39:35;95246.97;;;13.31;100.00
1832;BME280;1680;48.106;11.708;2023-05-12T06:42:03;95255.13;;;13.51;100.00
1832;BME280;1680;48.106;11.708;2023-05-12T06:44:30;95254.28;;;13.45;100.00
1832;BME280;1680;48.106;11.708;2023-05-12T06:46:57;95255.59;;;13.48;100.00
1832;BME280;1680;48.106;11.708;2023-05-12T06:49:24;95249.78;;;13.46;100.00
1832;BME280;1680;48.106;11.708;2023-05-12T06:51:53;95245.13;;;13.53;100.00
1832;BME280;1680;48.106;11.708;2023-05-12T06:54:20;95245.13;;;13.53;100.00
1832;BME280;1680;48.106;11.708;2023-05-12T06:56:47;95244.75;;;13.65;100.00
1832;BME280;1680;48.106;11.708;2023-05-12T06:59:14;95247.94;;;13.67;100.00
1832;BME280;1680;48.106;11.708;2023-05-12T07:01:42;95255.09;;;13.72;100.00
1832;BME280;1680;48.106;11.708;2023-05-12T07:04:09;95253.19;;;13.67;100.00
1832;BME280;1680;48.106;11.708;2023-05-12T07:06:36;95243.50;;;13.99;100.00
1832;BME280;1680;48.106;11.708;2023-05-12T07:09:04;95248.81;;;14.04;100.00
1832;BME280;1680;48.106;11.708;2023-05-12T07:11:32;95255.38;;;13.75;100.00
1832;BME280;1680;48.106;11.708;2023-05-12T07:13:59;95248.22;;;13.71;100.00
1832;BME280;1680;48.106;11.708;2023-05-12T07:16:26;95249.34;;;13.80;100.00
1832;BME280;1680;48.106;11.708;2023-05-12T07:18:53;95247.34;;;13.87;100.00
1832;BME280;1680;48.106;11.708;2023-05-12T07:21:20;95250.59;;;13.99;100.00
1832;BME280;1680;48.106;11.708;2023-05-12T07:23:48;95254.50;;;14.18;100.00
1832;BME280;1680;48.106;11.708;2023-05-12T07:26:17;95250.56;;;14.20;100.00
1832;BME280;1680;48.106;11.708;2023-05-12T07:28:46;95248.84;;;14.36;100.00
1832;BME280;1680;48.106;11.708;2023-05-12T07:31:13;95249.28;;;14.23;100.00
1832;BME280;1680;48.106;11.708;2023-05-12T07:33:40;95249.72;;;14.15;100.00
1832;BME280;1680;48.106;11.708;2023-05-12T07:36:07;95251.03;;;14.12;100.00
1832;BME280;1680;48.106;11.708;2023-05-12T07:38:35;95230.56;;;13.71;100.00
1832;BME280;1680;48.106;11.708;2023-05-12T07:41:02;95249.13;;;13.81;100.00
1832;BME280;1680;48.106;11.708;2023-05-12T07:43:30;95250.47;;;13.84;100.00
1832;BME280;1680;48.106;11.708;2023-05-12T07:45:57;95256.50;;;14.11;100.00
1832;BME280;1680;48.106;11.708;2023-05-12T07:48:25;95260.00;;;14.16;100.00
1832;BME280;1680;48.106;11.708;2023-05-12T07:50:52;95254.69;;;14.11;100.00
1832;BME280;1680;48.106;11.708;2023-05-12T07:53:20;95256.66;;;14.21;100.00
1832;BME280;1680;48.106;11.708;2023-05-12T07:55:47;95247.34;;;14.13;100.00
1832;BME280;1680;48.106;11.708;2023-05-12T07:58:14;95237.88;;;14.17;100.00
1832;BME280;1680;48.106;11.708;2023-05-12T08:00:43;95255.41;;;14.28;100.00
1832;BME280;1680;48.106;11.708;2023-05-12T08:03:10;95252.22;;;14.26;100.00
1832;BME280;1680;48.106;11.708;2023-05-12T08:05:38;95245.34;;;14.61;100.00
1832;BME280;1680;48.106;11.708;2023-05-12T08:08:05;95248.81;;;15.13;100.00
1832;BME280;1680;48.106;11.708;2023-05-12T08:10:33;95252.22;;;15.09;99.92
1832;BME280;1680;48.106;11.708;2023-05-12T08:13:01;95248.81;;;15.13;97.57
1832;BME280;1680;48.106;11.708;2023-05-12T08:15:28;95253.19;;;14.88;100.00
1832;BME280;1680;48.106;11.708;2023-05-12T08:17:56;95257.91;;;14.86;99.58
1832;BME280;1680;48.106;11.708;2023-05-12T08:20:23;95255.41;;;15.11;97.33
1832;BME280;1680;48.106;11.708;2023-05-12T08:22:51;95253.16;;;14.83;97.38
1832;BME280;1680;48.106;11.708;2023-05-12T08:25:18;95249.91;;;14.71;99.21
1832;BME280;1680;48.106;11.708;2023-05-12T08:27:45;95261.88;;;14.88;100.00
1832;BME280;1680;48.106;11.708;2023-05-12T08:30:13;95266.47;;;15.08;100.00
1832;BME280;1680;48.106;11.708;2023-05-12T08:32:40;95265.13;;;14.95;100.00
1832;BME280;1680;48.106;11.708;2023-05-12T08:35:09;95259.00;;;14.90;100.00
1832;BME280;1680;48.106;11.708;2023-05-12T08:37:36;95255.69;;;15.09;99.54
1832;BME280;1680;48.106;11.708;2023-05-12T08:40:09;95253.31;;;15.13;100.00
1832;BME280;1680;48.106;11.708;2023-05-12T08:42:42;95261.03;;;15.24;100.00
1832;BME280;1680;48.106;11.708;2023-05-12T08:45:10;95267.63;;;15.22;100.00
1832;BME280;1680;48.106;11.708;2023-05-12T08:47:37;95243.91;;;15.27;98.88
1832;BME280;1680;48.106;11.708;2023-05-12T08:50:09;95263.91;;;15.18;100.00
1832;BME280;1680;48.106;11.708;2023-05-12T08:52:38;95259.88;;;15.05;100.00
1832;BME280;1680;48.106;11.708;2023-05-12T08:55:07;95254.22;;;15.33;99.52
1832;BME280;1680;48.106;11.708;2023-05-12T08:57:36;95265.19;;;15.15;100.00
1832;BME280;1680;48.106;11.708;2023-05-12T09:00:04;95266.16;;;14.94;100.00
1832;BME280;1680;48.106;11.708;2023-05-12T09:02:36;95262.63;;;14.79;100.00
1832;BME280;1680;48.106;11.708;2023-05-12T09:05:06;95263.38;;;15.21;100.00
1832;BME280;1680;48.106;11.708;2023-05-12T09:07:35;95257.69;;;15.34;100.00
1832;BME280;1680;48.106;11.708;2023-05-12T09:10:05;95259.34;;;15.50;96.66
1832;BME280;1680;48.106;11.708;2023-05-12T09:12:35;95267.22;;;15.45;100.00
1832;BME280;1680;48.106;11.708;2023-05-12T09:15:05;95263.22;;;15.32;98.65
1832;BME280;1680;48.106;11.708;2023-05-12T09:17:33;95266.63;;;15.28;100.00
1832;BME280;1680;48.106;11.708;2023-05-12T09:20:01;95269.88;;;15.45;100.00
1832;BME280;1680;48.106;11.708;2023-05-12T09:22:30;95265.44;;;15.55;99.10
1832;BME280;1680;48.106;11.708;2023-05-12T09:25:00;95273.00;;;15.32;99.41
1832;BME280;1680;48.106;11.708;2023-05-12T09:27:40;95262.44;;;15.32;100.00
1832;BME280;1680;48.106;11.708;2023-05-12T09:30:08;95260.13;;;15.50;99.73
1832;BME280;1680;48.106;11.708;2023-05-12T09:32:35;95257.03;;;15.78;98.51
1832;BME280;1680;48.106;11.708;2023-05-12T09:35:04;95259.41;;;15.74;98.03
1832;BME280;1680;48.106;11.708;2023-05-12T09:37:33;95267.81;;;15.56;99.92
1832;BME280;1680;48.106;11.708;2023-05-12T09:40:03;95269.47;;;15.82;96.82
1832;BME280;1680;48.106;11.708;2023-05-12T09:42:33;95263.13;;;15.83;96.85
1832;BME280;1680;48.106;11.708;2023-05-12T09:45:01;95275.28;;;15.74;97.11
1832;BME280;1680;48.106;11.708;2023-05-12T09:47:33;95268.44;;;15.98;95.79
1832;BME280;1680;48.106;11.708;2023-05-12T09:50:02;95266.91;;;16.07;96.28
1832;BME280;1680;48.106;11.708;2023-05-12T09:52:30;95257.34;;;15.91;94.17
1832;BME280;1680;48.106;11.708;2023-05-12T09:55:10;95262.63;;;16.01;98.27
1832;BME280;1680;48.106;11.708;2023-05-12T09:57:39;95256.06;;;16.24;96.64
1832;BME280;1680;48.106;11.708;2023-05-12T10:00:08;95258.47;;;16.35;96.94
1832;BME280;1680;48.106;11.708;2023-05-12T10:02:37;95251.28;;;16.26;91.57
1832;BME280;1680;48.106;11.708;2023-05-12T10:05:11;95240.97;;;16.14;89.94
1832;BME280;1680;48.106;11.708;2023-05-12T10:07:41;95262.69;;;16.21;89.48
1832;BME280;1680;48.106;11.708;2023-05-12T10:10:14;95245.72;;;16.12;93.51
1832;BME280;1680;48.106;11.708;2023-05-12T10:12:44;95248.41;;;16.32;95.29
1832;BME280;1680;48.106;11.708;2023-05-12T10:15:12;95262.72;;;16.46;94.61
1832;BME280;1680;48.106;11.708;2023-05-12T10:17:39;95256.38;;;16.47;92.62
1832;BME280;1680;48.106;11.708;2023-05-12T10:20:08;95258.44;;;16.15;92.00
1832;BME280;1680;48.106;11.708;2023-05-12T10:22:37;95257.91;;;16.23;92.84
1832;BME280;1680;48.106;11.708;2023-05-12T10:25:05;95267.44;;;16.24;92.99
1832;BME280;1680;48.106;11.708;2023-05-12T10:27:35;95238.56;;;15.93;94.02
1832;BME280;1680;48.106;11.708;2023-05-12T10:30:05;95272.16;;;15.97;95.49
1832;BME280;1680;48.106;11.708;2023-05-12T10:32:33;95272.63;;;15.74;96.44
1832;BME280;1680;48.106;11.708;2023-05-12T10:35:07;95267.84;;;15.61;97.12
1832;BME280;1680;48.106;11.708;2023-05-12T10:37:35;95274.16;;;15.60;95.99
1832;BME280;1680;48.106;11.708;2023-05-12T10:40:03;95266.25;;;15.60;100.00
1832;BME280;1680;48.106;11.708;2023-05-12T10:42:38;95264.50;;;16.11;100.00
1832;BME280;1680;48.106;11.708;2023-05-12T10:45:14;95269.59;;;16.52;100.00
1832;BME280;1680;48.106;11.708;2023-05-12T10:47:43;95275.97;;;16.66;97.03
1832;BME280;1680;48.106;11.708;2023-05-12T10:50:11;95269.31;;;16.39;93.91
1832;BME280;1680;48.106;11.708;2023-05-12T10:52:39;95268.72;;;15.97;99.57
1832;BME280;1680;48.106;11.708;2023-05-12T10:55:11;95275.03;;;15.81;97.54
1832;BME280;1680;48.106;11.708;2023-05-12T10:57:48;95269.47;;;15.77;98.46
1832;BME280;1680;48.106;11.708;2023-05-12T11:00:21;95260.88;;;15.41;100.00
1832;BME280;1680;48.106;11.708;2023-05-12T11:02:50;95280.94;;;15.37;100.00
1832;BME280;1680;48.106;11.708;2023-05-12T11:05:18;95273.03;;;15.42;100.00
1832;BME280;1680;48.106;11.708;2023-05-12T11:07:47;95268.56;;;15.47;100.00
1832;BME280;1680;48.106;11.708;2023-05-12T11:10:14;95278.31;;;15.42;99.75
1832;BME280;1680;48.106;11.708;2023-05-12T11:12:42;95282.00;;;15.41;100.00
1832;BME280;1680;48.106;11.708;2023-05-12T11:15:12;95276.50;;;15.47;96.58
1832;BME280;1680;48.106;11.708;2023-05-12T11:17:40;95283.56;;;15.32;99.74
1832;BME280;1680;48.106;11.708;2023-05-12T11:20:08;95278.56;;;15.35;99.73
1832;BME280;1680;48.106;11.708;2023-05-12T11:22:36;95282.97;;;15.25;98.92
1832;BME280;1680;48.106;11.708;2023-05-12T11:25:10;95287.56;;;15.44;97.01
1832;BME280;1680;48.106;11.708;2023-05-12T11:27:38;95285.19;;;15.43;95.84
1832;BME280;1680;48.106;11.708;2023-05-12T11:30:09;95276.09;;;15.80;94.71
1832;BME280;1680;48.106;11.708;2023-05-12T11:32:38;95282.72;;;15.97;97.67
1832;BME280;1680;48.106;11.708;2023-05-12T11:35:09;95284.88;;;16.05;96.80
1832;BME280;1680;48.106;11.708;2023-05-12T11:37:37;95279.00;;;15.88;93.72
1832;BME280;1680;48.106;11.708;2023-05-12T11:40:19;95280.34;;;15.86;92.25
1832;BME280;1680;48.106;11.708;2023-05-12T11:42:47;95278.03;;;16.19;88.44
1832;BME280;1680;48.106;11.708;2023-05-12T11:45:23;95280.72;;;16.39;90.39
1832;BME280;1680;48.106;11.708;2023-05-12T11:48:04;95271.16;;;16.23;92.98
1832;BME280;1680;48.106;11.708;2023-05-12T11:50:33;95281.00;;;16.33;92.80
1832;BME280;1680;48.106;11.708;2023-05-12T11:53:03;95282.84;;;16.47;90.81
1832;BME280;1680;48.106;11.708;2023-05-12T11:55:30;95279.13;;;16.43;89.79
1832;BME280;1680;48.106;11.708;2023-05-12T11:58:00;95287.63;;;16.70;87.68
1832;BME280;1680;48.106;11.708;2023-05-12T12:00:29;95291.84;;;16.66;85.76
1832;BME280;1680;48.106;11.708;2023-05-12T12:03:07;95293.16;;;16.44;83.84
1832;BME280;1680;48.106;11.708;2023-05-12T12:05:34;95285.41;;;16.17;87.45
1832;BME280;1680;48.106;11.708;2023-05-12T12:08:06;95290.06;;;15.70;93.16
1832;BME280;1680;48.106;11.708;2023-05-12T12:10:34;95294.84;;;15.78;93.18
1832;BME280;1680;48.106;11.708;2023-05-12T12:13:02;95293.25;;;15.82;91.03
1832;BME280;1680;48.106;11.708;2023-05-12T12:15:30;95287.91;;;15.57;91.67
1832;BME280;1680;48.106;11.708;2023-05-12T12:17:57;95293.75;;;15.64;94.29
1832;BME280;1680;48.106;11.708;2023-05-12T12:20:26;95295.34;;;15.65;91.87
1832;BME280;1680;48.106;11.708;2023-05-12T12:22:53;95291.19;;;15.89;94.28
1832;BME280;1680;48.106;11.708;2023-05-12T12:25:20;95298.13;;;16.10;90.68
1832;BME280;1680;48.106;11.708;2023-05-12T12:27:48;95291.00;;;16.26;89.58
1832;BME280;1680;48.106;11.708;2023-05-12T12:30:17;95291.53;;;16.18;87.66
1832;BME280;1680;48.106;11.708;2023-05-12T12:32:45;95273.28;;;16.31;88.54
1832;BME280;1680;48.106;11.708;2023-05-12T12:35:13;95295.56;;;16.55;89.69
1832;BME280;1680;48.106;11.708;2023-05-12T12:37:41;95291.31;;;16.64;87.73
1832;BME280;1680;48.106;11.708;2023-05-12T12:40:09;95275.16;;;16.75;86.78
1832;BME280;1680;48.106;11.708;2023-05-12T12:42:37;95295.00;;;16.93;87.48
1832;BME280;1680;48.106;11.708;2023-05-12T12:45:07;95291.31;;;16.84;88.64
1832;BME280;1680;48.106;11.708;2023-05-12T12:47:35;95290.25;;;16.65;85.92
1832;BME280;1680;48.106;11.708;2023-05-12T12:50:03;95285.47;;;16.72;84.20
1832;BME280;1680;48.106;11.708;2023-05-12T12:52:31;95289.47;;;16.74;86.22
1832;BME280;1680;48.106;11.708;2023-05-12T12:55:00;95289.72;;;16.73;88.51
1832;BME280;1680;48.106;11.708;2023-05-12T12:57:28;95288.66;;;16.79;87.55
1832;BME280;1680;48.106;11.708;2023-05-12T12:59:55;95291.03;;;16.80;84.06
1832;BME280;1680;48.106;11.708;2023-05-12T13:02:22;95282.81;;;16.87;84.31
1832;BME280;1680;48.106;11.708;2023-05-12T13:04:50;95291.28;;;16.89;84.17
1832;BME280;1680;48.106;11.708;2023-05-12T13:07:17;95281.75;;;16.93;84.34